createdAt,value
2022-10-04T00:00:38.969Z,15.20
2022-10-04T00:03:11.124Z,15.22
2022-10-04T00:05:39.188Z,15.21
2022-10-04T00:08:35.236Z,15.13
2022-10-04T00:11:05.574Z,15.19
2022-10-04T00:13:32.713Z,15.20
2022-10-04T00:15:59.618Z,15.19
2022-10-04T00:18:31.794Z,15.05
2022-10-04T00:21:03.943Z,15.00
2022-10-04T00:23:36.725Z,14.75
2022-10-04T00:26:35.659Z,14.88
2022-10-04T00:29:35.249Z,14.99
2022-10-04T00:32:11.195Z,14.97
2022-10-04T00:34:51.195Z,15.00
2022-10-04T00:37:19.960Z,14.94
2022-10-04T00:39:56.110Z,14.95
2022-10-04T00:42:28.767Z,15.00
2022-10-04T00:45:10.683Z,14.96
2022-10-04T00:47:37.299Z,15.00
2022-10-04T00:50:15.425Z,14.91
2022-10-04T00:52:46.640Z,14.91
2022-10-04T00:55:40.924Z,14.96
2022-10-04T00:58:16.640Z,15.03
2022-10-04T01:00:43.690Z,15.03
2022-10-04T01:03:30.973Z,14.87
2022-10-04T01:06:01.425Z,14.91
2022-10-04T01:08:34.118Z,14.96
2022-10-04T01:11:10.112Z,14.88
2022-10-04T01:13:52.516Z,14.89
2022-10-04T01:16:29.929Z,14.82
2022-10-04T01:19:25.076Z,14.80
2022-10-04T01:22:12.663Z,14.83
2022-10-04T01:24:43.961Z,14.83
2022-10-04T01:27:35.638Z,14.95
2022-10-04T01:30:05.674Z,14.94
2022-10-04T01:32:32.410Z,14.89
2022-10-04T01:34:59.539Z,14.90
2022-10-04T01:37:27.619Z,14.87
2022-10-04T01:39:54.396Z,14.85
2022-10-04T01:42:21.745Z,14.91
2022-10-04T01:44:51.046Z,14.86
2022-10-04T01:47:24.033Z,14.91
2022-10-04T01:49:52.056Z,14.94
2022-10-04T01:52:36.477Z,14.95
2022-10-04T01:55:13.343Z,14.90
2022-10-04T01:57:47.950Z,14.89
2022-10-04T02:00:14.950Z,14.88
2022-10-04T02:02:55.301Z,14.79
2022-10-04T02:05:35.285Z,14.79
2022-10-04T02:08:08.465Z,14.68
2022-10-04T02:10:39.793Z,14.72
2022-10-04T02:13:12.833Z,14.72
2022-10-04T02:15:40.178Z,14.70
2022-10-04T02:18:12.354Z,14.67
2022-10-04T02:20:40.777Z,14.71
2022-10-04T02:23:07.974Z,14.64
2022-10-04T02:25:37.069Z,14.62
2022-10-04T02:28:04.653Z,14.61
2022-10-04T02:30:38.684Z,14.51
2022-10-04T02:33:05.883Z,14.55
2022-10-04T02:35:45.702Z,14.57
2022-10-04T02:38:23.612Z,14.61
2022-10-04T02:40:59.124Z,14.56
2022-10-04T02:43:36.400Z,14.58
2022-10-04T02:46:32.749Z,14.63
2022-10-04T02:49:01.614Z,14.54
2022-10-04T02:51:37.543Z,14.53
2022-10-04T02:54:14.850Z,14.49
2022-10-04T02:56:42.385Z,14.51
2022-10-04T02:59:16.589Z,14.56
2022-10-04T03:01:53.657Z,14.48
2022-10-04T03:04:23.447Z,14.49
2022-10-04T03:06:50.936Z,14.49
2022-10-04T03:09:20.136Z,14.41
2022-10-04T03:11:47.641Z,14.47
2022-10-04T03:14:18.490Z,14.46
2022-10-04T03:16:45.566Z,14.52
2022-10-04T03:19:13.735Z,14.44
2022-10-04T03:21:42.025Z,14.51
2022-10-04T03:24:10.541Z,14.47
2022-10-04T03:26:41.277Z,14.50
2022-10-04T03:29:10.456Z,14.35
2022-10-04T03:31:48.343Z,14.26
2022-10-04T03:34:25.680Z,14.38
2022-10-04T03:36:56.373Z,14.46
2022-10-04T03:39:33.651Z,14.32
2022-10-04T03:42:07.852Z,14.35
2022-10-04T03:44:35.038Z,14.33
2022-10-04T03:47:02.206Z,14.37
2022-10-04T03:49:35.190Z,14.36
2022-10-04T03:52:03.307Z,14.32
2022-10-04T03:54:33.560Z,14.34
2022-10-04T03:57:00.756Z,14.37
2022-10-04T03:59:28.445Z,14.36
2022-10-04T04:02:33.843Z,14.40
2022-10-04T04:05:25.264Z,14.41
2022-10-04T04:08:00.982Z,14.40
2022-10-04T04:10:30.580Z,14.41
2022-10-04T04:13:11.509Z,14.36
2022-10-04T04:15:42.518Z,14.35
2022-10-04T04:18:19.462Z,14.29
2022-10-04T04:20:46.304Z,14.35
2022-10-04T04:23:15.961Z,14.29
2022-10-04T04:25:47.893Z,14.18
2022-10-04T04:28:28.087Z,14.28
2022-10-04T04:31:04.303Z,14.22
2022-10-04T04:33:35.808Z,14.31
2022-10-04T04:36:07.118Z,14.34
2022-10-04T04:38:35.560Z,14.23
2022-10-04T04:41:10.928Z,14.29
2022-10-04T04:43:43.395Z,14.24
2022-10-04T04:46:26.529Z,14.31
2022-10-04T04:49:01.284Z,14.35
2022-10-04T04:51:28.315Z,14.20
2022-10-04T04:53:55.668Z,14.33
2022-10-04T04:56:29.632Z,14.35
2022-10-04T04:58:59.707Z,14.38
2022-10-04T05:01:33.466Z,14.30
2022-10-04T05:04:17.512Z,14.41
2022-10-04T05:06:46.557Z,14.32
2022-10-04T05:09:26.384Z,14.36
2022-10-04T05:11:55.883Z,14.41
2022-10-04T05:14:22.653Z,14.41
2022-10-04T05:16:52.317Z,14.36
2022-10-04T05:19:21.978Z,14.41
2022-10-04T05:21:50.584Z,14.46
2022-10-04T05:24:31.477Z,14.46
2022-10-04T05:27:02.080Z,14.53
2022-10-04T05:29:32.679Z,14.50
2022-10-04T05:32:16.207Z,14.57
2022-10-04T05:34:47.392Z,14.56
2022-10-04T05:37:24.372Z,14.58
2022-10-04T05:40:13.226Z,14.57
2022-10-04T05:42:45.563Z,14.39
2022-10-04T05:45:28.411Z,14.50
2022-10-04T05:47:57.368Z,14.48
2022-10-04T05:50:32.041Z,14.56
2022-10-04T05:53:24.833Z,14.51
2022-10-04T05:56:00.607Z,14.55
2022-10-04T05:58:42.549Z,14.57
2022-10-04T06:01:23.344Z,14.62
2022-10-04T06:04:09.465Z,14.62
2022-10-04T06:06:49.982Z,14.61
2022-10-04T06:09:37.856Z,14.65
2022-10-04T06:12:14.522Z,14.59
2022-10-04T06:14:58.632Z,14.64
2022-10-04T06:17:51.650Z,14.70
2022-10-04T06:20:50.133Z,14.75
2022-10-04T06:23:18.715Z,14.75
2022-10-04T06:25:59.307Z,14.65
2022-10-04T06:28:29.098Z,14.71
2022-10-04T06:31:28.190Z,14.55
2022-10-04T06:34:39.567Z,14.61
2022-10-04T06:37:23.083Z,14.72
2022-10-04T06:39:58.695Z,14.73
2022-10-04T06:42:34.668Z,14.81
2022-10-04T06:45:10.618Z,14.77
2022-10-04T06:48:15.068Z,14.58
2022-10-04T06:50:59.945Z,14.68
2022-10-04T06:53:30.680Z,14.61
2022-10-04T06:56:23.160Z,14.69
2022-10-04T06:59:23.861Z,14.79
2022-10-04T07:01:52.791Z,14.80
2022-10-04T07:05:06.876Z,14.67
2022-10-04T07:07:35.975Z,14.86
2022-10-04T07:10:21.049Z,14.93
2022-10-04T07:12:53.533Z,14.89
2022-10-04T07:15:24.340Z,15.03
2022-10-04T07:17:53.252Z,15.08
2022-10-04T07:20:27.364Z,15.13
2022-10-04T07:23:06.627Z,15.10
2022-10-04T07:25:49.517Z,15.14
2022-10-04T07:28:39.154Z,15.02
2022-10-04T07:31:14.685Z,15.04
2022-10-04T07:33:51.872Z,15.14
2022-10-04T07:36:23.014Z,15.21
2022-10-04T07:38:54.003Z,15.30
2022-10-04T07:41:28.818Z,15.36
2022-10-04T07:43:58.836Z,15.40
2022-10-04T07:46:37.721Z,15.38
2022-10-04T07:49:04.704Z,15.24
2022-10-04T07:51:42.448Z,15.30
2022-10-04T07:54:22.695Z,15.38
2022-10-04T07:57:15.560Z,15.38
2022-10-04T07:59:52.948Z,15.49
2022-10-04T08:02:31.227Z,15.48
2022-10-04T08:05:13.107Z,15.56
2022-10-04T08:08:00.191Z,15.63
2022-10-04T08:10:36.488Z,15.58
2022-10-04T08:13:12.763Z,15.38
2022-10-04T08:15:41.050Z,15.50
2022-10-04T08:18:26.614Z,15.60
2022-10-04T08:20:57.228Z,15.69
2022-10-04T08:23:39.792Z,15.80
2022-10-04T08:26:40.338Z,15.88
2022-10-04T08:29:44.514Z,15.96
2022-10-04T08:32:27.647Z,16.18
2022-10-04T08:35:29.357Z,16.13
2022-10-04T08:38:02.988Z,16.33
2022-10-04T08:40:33.751Z,16.46
2022-10-04T08:43:13.373Z,16.56
2022-10-04T08:45:49.390Z,16.66
2022-10-04T08:48:24.764Z,16.62
2022-10-04T08:51:29.206Z,16.80
2022-10-04T08:54:26.168Z,16.68
2022-10-04T08:57:16.442Z,16.77
2022-10-04T09:00:10.087Z,16.72
2022-10-04T09:02:42.900Z,16.60
2022-10-04T09:05:28.418Z,16.60
2022-10-04T09:08:28.616Z,16.82
2022-10-04T09:11:41.608Z,16.78
2022-10-04T09:14:46.784Z,16.81
2022-10-04T09:18:00.473Z,16.79
2022-10-04T09:20:59.200Z,16.81
2022-10-04T09:23:32.119Z,16.76
2022-10-04T09:26:12.676Z,16.75
2022-10-04T09:28:52.332Z,16.84
2022-10-04T09:31:40.790Z,16.70
2022-10-04T09:34:11.528Z,16.95
2022-10-04T09:36:40.757Z,17.09
2022-10-04T09:39:31.348Z,17.09
2022-10-04T09:42:01.046Z,17.30
2022-10-04T09:44:36.336Z,17.34
2022-10-04T09:47:12.490Z,17.42
2022-10-04T09:50:01.269Z,17.67
2022-10-04T09:52:56.656Z,17.89
2022-10-04T09:55:44.731Z,18.18
2022-10-04T09:58:51.879Z,18.35
2022-10-04T10:01:28.486Z,18.41
2022-10-04T10:04:33.092Z,18.64
2022-10-04T10:07:17.905Z,18.81
2022-10-04T10:10:06.261Z,19.16
2022-10-04T10:13:14.854Z,19.47
2022-10-04T10:15:58.380Z,19.59
2022-10-04T10:18:47.267Z,19.81
2022-10-04T10:21:26.557Z,19.78
2022-10-04T10:24:22.633Z,19.64
2022-10-04T10:26:54.797Z,19.80
2022-10-04T10:29:47.631Z,19.78
2022-10-04T10:32:59.919Z,19.42
2022-10-04T10:35:42.910Z,19.30
2022-10-04T10:38:31.430Z,19.32
2022-10-04T10:41:32.387Z,19.38
2022-10-04T10:44:20.681Z,19.42
2022-10-04T10:46:58.589Z,19.21
2022-10-04T10:50:15.822Z,19.17
2022-10-04T10:53:24.263Z,19.26
2022-10-04T10:56:29.926Z,19.05
2022-10-04T10:59:06.228Z,19.25
2022-10-04T11:02:05.829Z,19.21
2022-10-04T11:04:54.860Z,19.31
2022-10-04T11:07:27.673Z,19.36
2022-10-04T11:10:19.599Z,19.21
2022-10-04T11:13:18.923Z,19.31
2022-10-04T11:16:23.187Z,19.33
2022-10-04T11:19:17.689Z,19.34
2022-10-04T11:22:07.101Z,19.35
2022-10-04T11:24:34.885Z,19.34
2022-10-04T11:27:13.958Z,19.37
2022-10-04T11:29:44.015Z,19.33
2022-10-04T11:32:13.635Z,19.34
2022-10-04T11:35:37.296Z,19.44
2022-10-04T11:38:35.809Z,19.48
2022-10-04T11:41:04.121Z,19.46
2022-10-04T11:43:37.002Z,19.52
2022-10-04T11:46:21.498Z,19.25
2022-10-04T11:49:11.229Z,19.27
2022-10-04T11:52:17.760Z,19.34
2022-10-04T11:55:23.565Z,19.21
2022-10-04T11:58:20.424Z,19.17
2022-10-04T12:01:06.431Z,19.19
2022-10-04T12:04:10.388Z,19.27
2022-10-04T12:07:03.457Z,19.19
2022-10-04T12:09:42.376Z,19.07
2022-10-04T12:12:39.622Z,18.96
2022-10-04T12:15:36.311Z,19.14
2022-10-04T12:18:13.876Z,19.17
2022-10-04T12:21:19.055Z,19.25
2022-10-04T12:24:05.369Z,19.29
2022-10-04T12:26:50.835Z,19.19
2022-10-04T12:29:31.509Z,19.19
2022-10-04T12:32:00.433Z,19.01
2022-10-04T12:34:55.149Z,19.04
2022-10-04T12:37:49.105Z,19.16
2022-10-04T12:40:24.451Z,19.06
2022-10-04T12:43:16.802Z,19.22
2022-10-04T12:45:48.294Z,19.25
2022-10-04T12:48:28.738Z,19.26
2022-10-04T12:51:00.321Z,19.37
2022-10-04T12:53:34.751Z,19.46
2022-10-04T12:56:06.017Z,19.33
2022-10-04T12:58:57.397Z,19.23
2022-10-04T13:01:34.707Z,19.42
2022-10-04T13:04:13.025Z,19.28
2022-10-04T13:06:51.784Z,19.41
2022-10-04T13:09:30.979Z,19.43
2022-10-04T13:12:06.052Z,19.32
2022-10-04T13:14:38.781Z,19.27
2022-10-04T13:17:27.278Z,19.19
2022-10-04T13:20:21.329Z,19.32
2022-10-04T13:22:57.460Z,19.40
2022-10-04T13:26:05.741Z,19.31
2022-10-04T13:28:42.590Z,19.26
2022-10-04T13:31:49.387Z,19.35
2022-10-04T13:34:46.870Z,19.20
2022-10-04T13:37:53.726Z,19.20
2022-10-04T13:40:24.070Z,19.35
2022-10-04T13:42:53.789Z,19.34
2022-10-04T13:45:54.516Z,19.33
2022-10-04T13:48:27.312Z,19.44
2022-10-04T13:51:31.806Z,19.27
2022-10-04T13:54:42.405Z,19.26
2022-10-04T13:57:24.625Z,19.32
2022-10-04T14:00:06.904Z,19.41
2022-10-04T14:02:53.916Z,19.49
2022-10-04T14:05:39.346Z,19.55
2022-10-04T14:08:09.232Z,19.61
2022-10-04T14:10:53.336Z,19.62
2022-10-04T14:13:57.552Z,19.62
2022-10-04T14:16:49.121Z,19.60
2022-10-04T14:19:49.402Z,19.51
2022-10-04T14:22:37.466Z,19.52
2022-10-04T14:25:21.796Z,19.54
2022-10-04T14:28:14.838Z,19.46
2022-10-04T14:30:56.950Z,18.95
2022-10-04T14:33:45.697Z,18.92
2022-10-04T14:36:24.431Z,18.93
2022-10-04T14:38:54.170Z,19.07
2022-10-04T14:41:41.337Z,19.18
2022-10-04T14:44:27.033Z,19.23
2022-10-04T14:47:05.382Z,19.30
2022-10-04T14:50:09.723Z,19.21
2022-10-04T14:53:05.793Z,19.05
2022-10-04T14:56:15.752Z,19.07
2022-10-04T14:59:03.760Z,19.12
2022-10-04T15:01:33.170Z,19.25
2022-10-04T15:04:45.580Z,19.21
2022-10-04T15:07:27.557Z,19.24
2022-10-04T15:10:22.792Z,19.07
2022-10-04T15:13:10.478Z,18.83
2022-10-04T15:16:04.459Z,18.78
2022-10-04T15:19:06.625Z,18.96
2022-10-04T15:22:03.108Z,18.80
2022-10-04T15:24:39.670Z,18.66
2022-10-04T15:27:34.097Z,18.53
2022-10-04T15:30:34.933Z,18.66
2022-10-04T15:33:27.403Z,18.49
2022-10-04T15:35:57.121Z,18.34
2022-10-04T15:38:35.090Z,18.29
2022-10-04T15:41:06.850Z,18.42
2022-10-04T15:43:56.768Z,18.32
2022-10-04T15:46:38.676Z,18.45
2022-10-04T15:49:17.646Z,18.56
2022-10-04T15:51:53.426Z,18.52
2022-10-04T15:54:57.848Z,18.48
2022-10-04T15:57:56.502Z,18.34
2022-10-04T16:00:38.338Z,18.32
2022-10-04T16:03:28.405Z,18.32
2022-10-04T16:06:11.964Z,18.35
2022-10-04T16:08:57.056Z,18.33
2022-10-04T16:11:46.240Z,18.26
2022-10-04T16:14:22.046Z,18.20
2022-10-04T16:17:22.334Z,18.13
2022-10-04T16:20:00.303Z,18.02
2022-10-04T16:22:30.127Z,17.97
2022-10-04T16:25:25.539Z,17.90
2022-10-04T16:27:56.190Z,17.80
2022-10-04T16:30:30.970Z,17.74
2022-10-04T16:33:06.100Z,17.66
2022-10-04T16:35:42.384Z,17.56
2022-10-04T16:38:12.007Z,17.48
2022-10-04T16:40:50.885Z,17.42
2022-10-04T16:43:17.491Z,17.32
2022-10-04T16:46:09.926Z,17.25
2022-10-04T16:48:48.775Z,17.16
2022-10-04T16:51:18.976Z,17.08
2022-10-04T16:53:59.635Z,17.00
2022-10-04T16:56:28.777Z,16.93
2022-10-04T16:59:06.413Z,16.85
2022-10-04T17:01:42.178Z,16.78
2022-10-04T17:04:14.975Z,16.67
2022-10-04T17:06:56.868Z,16.61
2022-10-04T17:09:35.643Z,16.48
2022-10-04T17:12:08.621Z,16.44
2022-10-04T17:14:56.656Z,16.38
2022-10-04T17:17:33.601Z,16.30
2022-10-04T17:20:22.570Z,16.24
2022-10-04T17:22:59.279Z,16.17
2022-10-04T17:25:44.564Z,16.10
2022-10-04T17:28:29.260Z,16.02
2022-10-04T17:31:12.310Z,15.94
2022-10-04T17:34:20.510Z,15.88
2022-10-04T17:37:11.448Z,15.80
2022-10-04T17:39:47.167Z,15.73
2022-10-04T17:42:35.222Z,15.67
2022-10-04T17:45:14.887Z,15.63
2022-10-04T17:48:24.728Z,15.59
2022-10-04T17:51:36.240Z,15.53
2022-10-04T17:54:34.339Z,15.46
2022-10-04T17:57:04.006Z,15.38
2022-10-04T17:59:44.943Z,15.36
2022-10-04T18:02:23.274Z,15.31
2022-10-04T18:04:58.892Z,15.25
2022-10-04T18:07:37.093Z,15.24
2022-10-04T18:10:33.164Z,15.20
2022-10-04T18:13:05.028Z,15.16
2022-10-04T18:15:53.411Z,15.10
2022-10-04T18:18:21.810Z,15.03
2022-10-04T18:20:54.646Z,14.99
2022-10-04T18:23:28.388Z,14.96
2022-10-04T18:25:59.181Z,14.91
2022-10-04T18:28:26.159Z,14.87
2022-10-04T18:31:00.225Z,14.85
2022-10-04T18:33:47.261Z,14.81
2022-10-04T18:36:22.511Z,14.75
2022-10-04T18:39:04.132Z,14.74
2022-10-04T18:41:50.004Z,14.69
2022-10-04T18:44:18.156Z,14.66
2022-10-04T18:46:48.369Z,14.62
2022-10-04T18:49:18.182Z,14.58
2022-10-04T18:51:54.271Z,14.57
2022-10-04T18:54:52.840Z,14.53
2022-10-04T18:57:59.471Z,14.49
2022-10-04T19:00:50.965Z,14.45
2022-10-04T19:03:27.117Z,14.40
2022-10-04T19:05:59.854Z,14.39
2022-10-04T19:08:47.234Z,14.37
2022-10-04T19:11:23.618Z,14.34
2022-10-04T19:13:59.625Z,14.30
2022-10-04T19:16:58.330Z,14.28
2022-10-04T19:19:38.037Z,14.25
2022-10-04T19:22:18.988Z,14.23
2022-10-04T19:25:04.426Z,14.19
2022-10-04T19:27:45.450Z,14.12
2022-10-04T19:30:17.099Z,14.15
2022-10-04T19:33:14.781Z,14.10
2022-10-04T19:35:47.457Z,14.08
2022-10-04T19:38:20.486Z,14.05
2022-10-04T19:41:00.932Z,14.02
2022-10-04T19:43:46.497Z,14.01
2022-10-04T19:46:22.651Z,14.00
2022-10-04T19:48:51.331Z,13.94
2022-10-04T19:51:34.794Z,13.90
2022-10-04T19:54:16.185Z,13.88
2022-10-04T19:56:50.423Z,13.86
2022-10-04T19:59:31.525Z,13.83
2022-10-04T20:01:58.426Z,13.81
2022-10-04T20:04:35.623Z,13.75
2022-10-04T20:07:11.785Z,13.72
2022-10-04T20:09:41.488Z,13.69
2022-10-04T20:12:28.783Z,13.67
2022-10-04T20:15:17.531Z,13.65
2022-10-04T20:17:45.707Z,13.62
2022-10-04T20:20:39.332Z,13.58
2022-10-04T20:23:07.831Z,13.55
2022-10-04T20:25:43.986Z,13.51
2022-10-04T20:28:38.813Z,13.47
2022-10-04T20:31:26.452Z,13.46
2022-10-04T20:33:53.648Z,13.43
2022-10-04T20:36:20.639Z,13.40
2022-10-04T20:38:59.717Z,13.38
2022-10-04T20:41:29.719Z,13.36
2022-10-04T20:44:01.741Z,13.33
2022-10-04T20:46:38.372Z,13.33
2022-10-04T20:49:14.957Z,13.30
2022-10-04T20:51:49.203Z,13.29
2022-10-04T20:54:20.419Z,13.25
2022-10-04T20:56:55.211Z,13.26
2022-10-04T20:59:24.063Z,13.24
2022-10-04T21:02:02.756Z,13.23
2022-10-04T21:04:30.446Z,13.21
2022-10-04T21:07:02.484Z,13.18
2022-10-04T21:09:31.251Z,13.16
2022-10-04T21:11:58.613Z,13.13
2022-10-04T21:14:25.358Z,13.12
2022-10-04T21:16:58.572Z,13.09
2022-10-04T21:19:48.636Z,13.08
2022-10-04T21:22:18.394Z,13.06
2022-10-04T21:24:48.257Z,13.08
2022-10-04T21:27:40.118Z,13.07
2022-10-04T21:30:14.837Z,13.05
2022-10-04T21:32:41.538Z,13.05
2022-10-04T21:35:08.989Z,13.03
2022-10-04T21:37:36.076Z,13.04
2022-10-04T21:40:03.966Z,13.04
2022-10-04T21:42:30.641Z,13.04
2022-10-04T21:44:57.599Z,13.03
2022-10-04T21:47:24.408Z,13.02
2022-10-04T21:49:52.220Z,13.00
2022-10-04T21:52:19.249Z,13.00
2022-10-04T21:54:46.148Z,12.97
2022-10-04T21:57:13.535Z,12.97
2022-10-04T21:59:40.245Z,12.96
2022-10-04T22:02:07.949Z,12.92
2022-10-04T22:04:34.712Z,12.90
2022-10-04T22:07:01.463Z,12.91
2022-10-04T22:09:28.855Z,12.88
2022-10-04T22:11:55.537Z,12.87
2022-10-04T22:14:22.172Z,12.88
2022-10-04T22:16:49.564Z,12.86
2022-10-04T22:19:16.681Z,12.82
2022-10-04T22:21:43.374Z,12.74
2022-10-04T22:24:18.018Z,12.78
2022-10-04T22:26:45.513Z,12.79
2022-10-04T22:29:14.141Z,12.76
2022-10-04T22:31:44.207Z,12.76
2022-10-04T22:34:16.933Z,12.76
2022-10-04T22:36:44.221Z,12.74
2022-10-04T22:39:14.901Z,12.72
2022-10-04T22:41:52.783Z,12.72
2022-10-04T22:44:29.011Z,12.69
2022-10-04T22:46:57.791Z,12.67
2022-10-04T22:49:46.096Z,12.65
2022-10-04T22:52:20.541Z,12.64
2022-10-04T22:54:49.625Z,12.63
2022-10-04T22:57:17.818Z,12.62
2022-10-04T22:59:47.188Z,12.58
2022-10-04T23:02:26.930Z,12.56
2022-10-04T23:04:59.448Z,12.54
2022-10-04T23:07:26.244Z,12.52
2022-10-04T23:09:53.234Z,12.52
2022-10-04T23:12:19.926Z,12.50
2022-10-04T23:14:46.652Z,12.48
2022-10-04T23:17:23.978Z,12.48
2022-10-04T23:20:09.492Z,12.47
2022-10-04T23:22:36.239Z,12.45
2022-10-04T23:25:06.303Z,12.42
2022-10-04T23:27:34.200Z,12.43
2022-10-04T23:30:04.371Z,12.41
2022-10-04T23:32:32.200Z,12.41
2022-10-04T23:35:00.455Z,12.40
2022-10-04T23:37:31.359Z,12.39
2022-10-04T23:39:58.084Z,12.37
2022-10-04T23:42:32.022Z,12.33
2022-10-04T23:45:00.083Z,12.30
2022-10-04T23:47:34.518Z,12.28
2022-10-04T23:50:01.764Z,12.26
2022-10-04T23:52:36.070Z,12.26
2022-10-04T23:55:03.168Z,12.20
2022-10-04T23:57:31.214Z,12.17
2022-10-04T23:59:59.723Z,12.20
